createdAt,value
2018-07-14T00:01:28.669Z,56.96
2018-07-14T00:03:57.334Z,57.25
2018-07-14T00:06:25.937Z,57.11
2018-07-14T00:08:54.594Z,56.82
2018-07-14T00:11:23.208Z,56.66
2018-07-14T00:13:51.869Z,57.36
2018-07-14T00:16:20.587Z,56.78
2018-07-14T00:18:49.217Z,56.62
2018-07-14T00:21:17.868Z,56.16
2018-07-14T00:23:46.507Z,56.74
2018-07-14T00:26:18.309Z,56.49
2018-07-14T00:28:47.463Z,56.62
2018-07-14T00:31:16.290Z,56.89
2018-07-14T00:33:44.929Z,56.73
2018-07-14T00:36:13.533Z,57.12
2018-07-14T00:38:42.235Z,56.90
2018-07-14T00:41:10.868Z,56.89
2018-07-14T00:43:39.489Z,56.25
2018-07-14T00:46:08.101Z,56.69
2018-07-14T00:48:36.710Z,56.76
2018-07-14T00:51:06.081Z,56.90
2018-07-14T00:53:34.686Z,56.42
2018-07-14T00:56:03.357Z,57.06
2018-07-14T00:58:32.090Z,57.00
2018-07-14T01:01:00.697Z,57.20
2018-07-14T01:03:29.310Z,57.05
2018-07-14T01:05:57.883Z,57.52
2018-07-14T01:08:26.505Z,57.87
2018-07-14T01:10:56.593Z,58.39
2018-07-14T01:13:25.901Z,58.54
2018-07-14T01:15:54.542Z,58.84
2018-07-14T01:18:23.160Z,58.82
2018-07-14T01:20:51.732Z,59.28
2018-07-14T01:23:20.337Z,58.82
2018-07-14T01:25:48.943Z,59.01
2018-07-14T01:28:17.630Z,59.75
2018-07-14T01:30:46.320Z,59.80
2018-07-14T01:33:14.994Z,59.82
2018-07-14T01:35:43.589Z,60.01
2018-07-14T01:38:12.228Z,59.45
2018-07-14T01:40:40.821Z,59.63
2018-07-14T01:43:09.470Z,59.72
2018-07-14T01:45:38.091Z,59.99
2018-07-14T01:48:06.749Z,59.41
2018-07-14T01:50:35.370Z,59.41
2018-07-14T01:53:03.978Z,59.44
2018-07-14T01:55:32.628Z,59.44
2018-07-14T01:58:01.344Z,59.38
2018-07-14T02:00:29.976Z,60.05
2018-07-14T02:02:58.564Z,59.85
2018-07-14T02:05:27.247Z,59.85
2018-07-14T02:07:55.855Z,59.91
2018-07-14T02:10:24.481Z,59.31
2018-07-14T02:12:53.048Z,59.85
2018-07-14T02:15:21.906Z,59.88
2018-07-14T02:17:50.540Z,60.31
2018-07-14T02:20:19.177Z,60.22
2018-07-14T02:22:47.781Z,60.32
2018-07-14T02:25:17.113Z,60.37
2018-07-14T02:27:46.435Z,60.63
2018-07-14T02:30:15.129Z,60.67
2018-07-14T02:32:43.733Z,60.60
2018-07-14T02:35:12.525Z,60.88
2018-07-14T02:37:41.286Z,60.18
2018-07-14T02:40:09.871Z,60.77
2018-07-14T02:42:38.794Z,60.54
2018-07-14T02:45:07.686Z,61.32
2018-07-14T02:47:36.501Z,60.94
2018-07-14T02:50:05.203Z,61.15
2018-07-14T02:52:33.974Z,59.97
2018-07-14T02:55:02.746Z,60.87
2018-07-14T02:57:31.393Z,60.77
2018-07-14T03:00:00.073Z,60.88
2018-07-14T03:02:28.675Z,61.39
2018-07-14T03:04:57.289Z,60.88
2018-07-14T03:07:25.893Z,60.65
2018-07-14T03:09:54.513Z,61.17
2018-07-14T03:12:23.117Z,60.89
2018-07-14T03:14:51.761Z,60.25
2018-07-14T03:17:20.441Z,60.33
2018-07-14T03:19:49.061Z,60.78
2018-07-14T03:22:17.686Z,60.67
2018-07-14T03:24:46.304Z,61.46
2018-07-14T03:27:14.912Z,61.71
2018-07-14T03:29:43.582Z,61.59
2018-07-14T03:32:12.906Z,62.06
2018-07-14T03:34:41.622Z,61.86
2018-07-14T03:37:10.213Z,62.76
2018-07-14T03:39:38.846Z,62.39
2018-07-14T03:42:07.483Z,62.65
2018-07-14T03:44:36.018Z,62.20
2018-07-14T03:47:04.690Z,62.20
2018-07-14T03:49:33.271Z,61.87
2018-07-14T03:52:01.840Z,61.68
2018-07-14T03:54:31.393Z,61.29
2018-07-14T03:57:00.059Z,60.87
2018-07-14T03:59:28.670Z,60.74
2018-07-14T04:01:57.263Z,59.75
2018-07-14T04:04:25.960Z,59.55
2018-07-14T04:06:55.975Z,58.81
2018-07-14T04:09:24.618Z,59.19
2018-07-14T04:11:53.218Z,58.92
2018-07-14T04:14:21.846Z,59.33
2018-07-14T04:16:50.473Z,59.60
2018-07-14T04:19:19.110Z,60.01
2018-07-14T04:21:47.801Z,59.91
2018-07-14T04:24:16.831Z,59.85
2018-07-14T04:26:45.469Z,60.39
2018-07-14T04:29:14.868Z,59.14
2018-07-14T04:31:43.559Z,59.87
2018-07-14T04:34:12.153Z,59.42
2018-07-14T04:36:40.816Z,58.85
2018-07-14T04:39:09.433Z,58.73
2018-07-14T04:41:38.074Z,59.26
2018-07-14T04:44:06.765Z,58.06
2018-07-14T04:46:35.387Z,57.70
2018-07-14T04:49:04.006Z,58.72
2018-07-14T04:51:32.587Z,58.40
2018-07-14T04:54:01.326Z,58.14
2018-07-14T04:56:29.950Z,57.72
2018-07-14T04:58:58.626Z,57.47
2018-07-14T05:01:27.256Z,57.39
2018-07-14T05:03:55.855Z,57.03
2018-07-14T05:06:24.521Z,54.81
2018-07-14T05:08:53.080Z,54.73
2018-07-14T05:11:21.693Z,53.16
2018-07-14T05:13:50.338Z,53.83
2018-07-14T05:16:19.055Z,53.66
2018-07-14T05:18:47.772Z,53.68
2018-07-14T05:21:16.522Z,53.72
2018-07-14T05:23:45.233Z,52.67
2018-07-14T05:26:14.909Z,53.29
2018-07-14T05:28:43.654Z,52.71
2018-07-14T05:31:12.170Z,53.19
2018-07-14T05:33:41.055Z,52.51
2018-07-14T05:36:09.686Z,53.06
2018-07-14T05:38:38.289Z,52.80
2018-07-14T05:41:06.914Z,52.77
2018-07-14T05:43:35.537Z,52.36
2018-07-14T05:46:04.160Z,52.49
2018-07-14T05:48:32.777Z,51.09
2018-07-14T05:51:01.527Z,51.24
2018-07-14T05:53:30.170Z,50.74
2018-07-14T05:55:59.019Z,50.15
2018-07-14T05:58:27.633Z,51.06
2018-07-14T06:00:57.304Z,50.80
2018-07-14T06:03:26.054Z,50.31
2018-07-14T06:05:54.725Z,50.08
2018-07-14T06:08:23.442Z,49.88
2018-07-14T06:10:52.053Z,49.83
2018-07-14T06:13:20.757Z,50.04
2018-07-14T06:15:49.660Z,49.64
2018-07-14T06:18:18.294Z,49.99
2018-07-14T06:20:47.285Z,49.01
2018-07-14T06:23:15.884Z,49.12
2018-07-14T06:25:44.685Z,48.98
2018-07-14T06:28:13.328Z,49.09
2018-07-14T06:30:43.566Z,48.80
2018-07-14T06:33:12.205Z,48.00
2018-07-14T06:35:40.829Z,48.18
2018-07-14T06:38:09.522Z,48.09
2018-07-14T06:40:38.164Z,48.25
2018-07-14T06:43:06.886Z,46.94
2018-07-14T06:45:35.467Z,47.23
2018-07-14T06:48:04.139Z,46.65
2018-07-14T06:50:32.849Z,45.17
2018-07-14T06:53:01.728Z,45.29
2018-07-14T06:55:30.999Z,45.29
2018-07-14T06:58:00.861Z,44.41
2018-07-14T07:00:29.507Z,44.69
2018-07-14T07:02:58.168Z,43.84
2018-07-14T07:05:26.841Z,44.27
2018-07-14T07:07:55.501Z,43.80
2018-07-14T07:10:24.091Z,43.70
2018-07-14T07:12:52.808Z,43.85
2018-07-14T07:15:21.649Z,43.93
2018-07-14T07:17:50.280Z,43.73
2018-07-14T07:20:18.937Z,43.75
2018-07-14T07:22:48.307Z,44.26
2018-07-14T07:25:16.915Z,44.30
2018-07-14T07:27:45.541Z,43.35
2018-07-14T07:30:14.229Z,42.89
2018-07-14T07:32:42.805Z,42.72
2018-07-14T07:35:11.474Z,43.08
2018-07-14T07:37:40.136Z,43.04
2018-07-14T07:40:08.829Z,42.67
2018-07-14T07:42:37.484Z,42.45
2018-07-14T07:45:06.517Z,42.48
2018-07-14T07:47:35.264Z,42.40
2018-07-14T07:50:03.952Z,42.60
2018-07-14T07:52:32.725Z,42.21
2018-07-14T07:55:01.469Z,41.64
2018-07-14T07:57:30.139Z,42.22
2018-07-14T07:59:58.852Z,40.84
2018-07-14T08:02:27.589Z,40.62
2018-07-14T08:04:56.254Z,41.17
2018-07-14T08:07:24.922Z,40.67
2018-07-14T08:09:53.545Z,40.88
2018-07-14T08:12:22.185Z,40.35
2018-07-14T08:14:50.849Z,39.98
2018-07-14T08:17:19.582Z,39.17
2018-07-14T08:19:48.273Z,40.15
2018-07-14T08:22:16.963Z,40.03
2018-07-14T08:24:45.609Z,39.79
2018-07-14T08:27:14.234Z,39.97
2018-07-14T08:29:43.041Z,39.57
2018-07-14T08:32:11.644Z,39.68
2018-07-14T08:34:40.430Z,38.96
2018-07-14T08:37:09.158Z,40.14
2018-07-14T08:39:38.289Z,39.64
2018-07-14T08:42:07.229Z,40.26
2018-07-14T08:44:36.106Z,39.88
2018-07-14T08:47:04.786Z,39.87
2018-07-14T08:49:33.481Z,39.60
2018-07-14T08:52:02.185Z,40.01
2018-07-14T08:54:30.824Z,38.85
2018-07-14T08:56:59.466Z,38.78
2018-07-14T08:59:28.230Z,39.13
2018-07-14T09:01:57.000Z,38.31
2018-07-14T09:04:25.848Z,37.47
2018-07-14T09:06:54.493Z,38.44
2018-07-14T09:09:23.252Z,38.79
2018-07-14T09:11:52.030Z,37.76
2018-07-14T09:14:21.662Z,38.11
2018-07-14T09:16:50.439Z,37.75
2018-07-14T09:19:21.442Z,38.02
2018-07-14T09:21:50.085Z,36.11
2018-07-14T09:24:18.725Z,36.79
2018-07-14T09:26:47.561Z,36.11
2018-07-14T09:29:16.289Z,36.06
2018-07-14T09:31:44.956Z,37.21
2018-07-14T09:34:13.676Z,36.43
2018-07-14T09:36:42.534Z,36.67
2018-07-14T09:39:11.206Z,36.59
2018-07-14T09:41:39.925Z,36.68
2018-07-14T09:44:08.582Z,36.35
2018-07-14T09:46:37.298Z,36.50
2018-07-14T09:49:05.988Z,36.68
2018-07-14T09:51:34.717Z,37.05
2018-07-14T09:54:03.415Z,36.85
2018-07-14T09:56:32.950Z,36.69
2018-07-14T09:59:01.635Z,36.59
2018-07-14T10:01:30.303Z,36.01
2018-07-14T10:03:58.993Z,35.80
2018-07-14T10:06:27.639Z,35.13
2018-07-14T10:08:56.298Z,35.41
2018-07-14T10:11:24.950Z,35.01
2018-07-14T10:13:53.652Z,34.91
2018-07-14T10:16:22.318Z,35.47
2018-07-14T10:18:51.040Z,36.12
2018-07-14T10:21:19.657Z,36.70
2018-07-14T10:23:48.277Z,35.75
2018-07-14T10:26:16.933Z,35.13
2018-07-14T10:28:45.561Z,34.81
2018-07-14T10:31:14.181Z,34.50
2018-07-14T10:33:42.882Z,33.80
2018-07-14T10:36:11.469Z,33.75
2018-07-14T10:38:40.229Z,32.78
2018-07-14T10:41:09.078Z,31.25
2018-07-14T10:43:37.722Z,30.38
2018-07-14T10:46:06.518Z,28.35
2018-07-14T10:48:35.241Z,29.58
2018-07-14T10:51:03.858Z,30.23
2018-07-14T10:53:32.526Z,30.86
2018-07-14T10:56:01.608Z,30.54
2018-07-14T10:58:31.323Z,30.56
2018-07-14T11:01:00.113Z,29.79
2018-07-14T11:03:28.757Z,27.40
2018-07-14T11:05:57.391Z,28.53
2018-07-14T11:08:26.083Z,28.15
2018-07-14T11:10:54.773Z,28.25
2018-07-14T11:13:23.450Z,28.69
2018-07-14T11:15:52.097Z,28.51
2018-07-14T11:18:21.273Z,27.83
2018-07-14T11:20:49.947Z,27.44
2018-07-14T11:23:18.792Z,27.27
2018-07-14T11:25:47.421Z,28.43
2018-07-14T11:28:16.059Z,27.38
2018-07-14T11:30:44.829Z,26.69
2018-07-14T11:33:13.481Z,25.58
2018-07-14T11:35:42.070Z,25.37
2018-07-14T11:38:10.745Z,25.95
2018-07-14T11:40:39.359Z,25.64
2018-07-14T11:43:07.986Z,25.25
2018-07-14T11:45:36.583Z,23.99
2018-07-14T11:48:05.176Z,25.01
2018-07-14T11:50:33.854Z,24.36
2018-07-14T11:53:02.462Z,25.20
2018-07-14T11:55:31.118Z,24.96
2018-07-14T11:57:59.945Z,24.51
2018-07-14T12:00:28.584Z,25.27
2018-07-14T12:02:57.172Z,23.90
2018-07-14T12:05:25.814Z,24.53
2018-07-14T12:07:54.462Z,23.61
2018-07-14T12:10:23.097Z,22.94
2018-07-14T12:12:51.831Z,24.50
2018-07-14T12:15:20.426Z,25.56
2018-07-14T12:17:49.046Z,25.59
2018-07-14T12:20:17.655Z,25.17
2018-07-14T12:22:46.242Z,24.35
2018-07-14T12:25:14.815Z,24.70
2018-07-14T12:27:43.457Z,24.57
2018-07-14T12:30:12.140Z,26.76
2018-07-14T12:32:40.731Z,26.29
2018-07-14T12:35:09.426Z,27.49
2018-07-14T12:37:37.997Z,28.38
2018-07-14T12:40:06.865Z,27.61
2018-07-14T12:42:35.547Z,27.74
2018-07-14T12:45:04.239Z,27.97
2018-07-14T12:47:32.830Z,27.14
2018-07-14T12:50:01.463Z,25.80
2018-07-14T12:52:30.122Z,25.13
2018-07-14T12:54:58.754Z,25.08
2018-07-14T12:57:28.158Z,25.40
2018-07-14T12:59:57.095Z,24.51
2018-07-14T13:02:26.755Z,25.44
2018-07-14T13:04:55.425Z,26.45
2018-07-14T13:07:24.705Z,26.73
2018-07-14T13:09:53.675Z,26.08
2018-07-14T13:12:22.481Z,25.59
2018-07-14T13:14:51.201Z,23.70
2018-07-14T13:17:19.897Z,23.31
2018-07-14T13:19:48.620Z,23.40
2018-07-14T13:22:17.449Z,23.64
2018-07-14T13:24:46.074Z,25.29
2018-07-14T13:27:14.730Z,25.30
2018-07-14T13:29:43.397Z,24.20
2018-07-14T13:32:12.105Z,23.92
2018-07-14T13:34:40.700Z,23.56
2018-07-14T13:37:09.960Z,23.57
2018-07-14T13:39:38.564Z,30.67
2018-07-14T13:42:07.261Z,32.50
2018-07-14T13:44:35.861Z,33.21
2018-07-14T13:47:04.461Z,33.30
2018-07-14T13:49:33.203Z,33.72
2018-07-14T13:52:01.818Z,34.70
2018-07-14T13:54:30.454Z,34.93
2018-07-14T13:56:59.814Z,33.21
2018-07-14T13:59:28.430Z,32.43
2018-07-14T14:01:57.009Z,34.83
2018-07-14T14:04:25.615Z,35.10
2018-07-14T14:06:54.206Z,34.97
2018-07-14T14:09:22.831Z,34.62
2018-07-14T14:11:51.473Z,35.14
2018-07-14T14:14:20.101Z,34.89
2018-07-14T14:16:48.727Z,33.95
2018-07-14T14:19:17.421Z,33.27
2018-07-14T14:21:46.737Z,32.52
2018-07-14T14:24:15.421Z,32.42
2018-07-14T14:26:44.088Z,33.10
2018-07-14T14:29:13.352Z,34.07
2018-07-14T14:31:42.033Z,35.21
2018-07-14T14:34:11.234Z,35.58
2018-07-14T14:36:39.943Z,35.75
2018-07-14T14:39:09.657Z,35.37
2018-07-14T14:41:38.341Z,34.87
2018-07-14T14:44:07.040Z,36.01
2018-07-14T14:46:35.779Z,38.87
2018-07-14T14:49:04.544Z,39.95
2018-07-14T14:51:33.254Z,40.54
2018-07-14T14:54:01.886Z,39.31
2018-07-14T14:56:30.529Z,36.63
2018-07-14T14:58:59.157Z,33.58
2018-07-14T15:01:27.769Z,30.00
2018-07-14T15:03:56.427Z,26.91
2018-07-14T15:06:25.066Z,27.35
2018-07-14T15:08:53.785Z,25.89
2018-07-14T15:11:22.418Z,24.58
2018-07-14T15:13:51.001Z,26.73
2018-07-14T15:16:19.634Z,27.88
2018-07-14T15:18:48.275Z,30.92
2018-07-14T15:21:16.870Z,33.00
2018-07-14T15:23:45.490Z,35.02
2018-07-14T15:26:14.198Z,38.69
2018-07-14T15:28:42.997Z,37.13
2018-07-14T15:31:11.631Z,36.27
2018-07-14T15:33:40.271Z,35.51
2018-07-14T15:36:08.934Z,36.15
2018-07-14T15:38:37.572Z,32.31
2018-07-14T15:41:06.573Z,33.04
2018-07-14T15:43:35.263Z,32.60
2018-07-14T15:46:03.870Z,30.42
2018-07-14T15:48:32.519Z,29.78
2018-07-14T15:51:01.837Z,29.94
2018-07-14T15:53:30.534Z,28.24
2018-07-14T15:55:59.184Z,28.92
2018-07-14T15:58:28.289Z,27.49
2018-07-14T16:00:56.897Z,26.65
2018-07-14T16:03:25.502Z,25.38
2018-07-14T16:05:54.134Z,23.84
2018-07-14T16:08:22.746Z,23.17
2018-07-14T16:10:51.542Z,22.22
2018-07-14T16:13:20.150Z,21.62
2018-07-14T16:15:48.783Z,20.15
2018-07-14T16:18:17.445Z,19.66
2018-07-14T16:20:46.090Z,19.48
2018-07-14T16:23:14.691Z,19.54
2018-07-14T16:25:43.336Z,18.90
2018-07-14T16:28:11.981Z,18.80
2018-07-14T16:30:41.326Z,18.34
2018-07-14T16:33:10.055Z,18.53
2018-07-14T16:35:38.756Z,19.07
2018-07-14T16:38:07.334Z,18.31
2018-07-14T16:40:36.120Z,17.39
2018-07-14T16:43:05.122Z,18.86
2018-07-14T16:45:34.394Z,19.60
2018-07-14T16:48:03.046Z,19.28
2018-07-14T16:50:31.639Z,18.86
2018-07-14T16:53:00.269Z,18.61
2018-07-14T16:55:28.957Z,19.56
2018-07-14T16:57:57.560Z,20.19
2018-07-14T17:00:26.210Z,18.74
2018-07-14T17:02:54.826Z,19.61
2018-07-14T17:05:23.435Z,20.50
2018-07-14T17:07:52.354Z,19.70
2018-07-14T17:10:20.967Z,20.22
2018-07-14T17:12:49.641Z,21.81
2018-07-14T17:15:18.504Z,21.40
2018-07-14T17:17:47.343Z,20.58
2018-07-14T17:20:16.198Z,20.56
2018-07-14T17:22:44.796Z,20.32
2018-07-14T17:25:13.518Z,20.86
2018-07-14T17:27:42.690Z,21.09
2018-07-14T17:30:11.346Z,21.74
2018-07-14T17:32:39.952Z,21.73
2018-07-14T17:35:08.638Z,22.10
2018-07-14T17:37:37.305Z,23.13
2018-07-14T17:40:05.971Z,22.71
2018-07-14T17:42:34.689Z,23.65
2018-07-14T17:45:03.362Z,24.50
2018-07-14T17:47:32.010Z,24.75
2018-07-14T17:50:00.746Z,24.33
2018-07-14T17:52:29.437Z,24.46
2018-07-14T17:54:58.083Z,25.78
2018-07-14T17:57:26.706Z,29.13
2018-07-14T17:59:55.443Z,31.02
2018-07-14T18:02:24.160Z,33.09
2018-07-14T18:04:52.814Z,35.47
2018-07-14T18:07:21.442Z,36.85
2018-07-14T18:09:50.085Z,37.60
2018-07-14T18:12:18.756Z,39.67
2018-07-14T18:14:47.438Z,40.82
2018-07-14T18:17:16.834Z,42.22
2018-07-14T18:19:46.124Z,41.86
2018-07-14T18:22:14.794Z,43.10
2018-07-14T18:24:43.407Z,43.85
2018-07-14T18:27:12.065Z,43.89
2018-07-14T18:29:40.738Z,44.87
2018-07-14T18:32:09.977Z,45.73
2018-07-14T18:34:38.651Z,46.02
2018-07-14T18:37:07.265Z,46.10
2018-07-14T18:39:35.917Z,46.72
2018-07-14T18:42:05.242Z,47.50
2018-07-14T18:44:33.914Z,47.18
2018-07-14T18:47:02.597Z,48.50
2018-07-14T18:49:31.282Z,48.82
2018-07-14T18:51:59.951Z,49.10
2018-07-14T18:54:28.638Z,49.12
2018-07-14T18:56:57.383Z,49.56
2018-07-14T18:59:26.039Z,49.56
2018-07-14T19:01:54.697Z,49.65
2018-07-14T19:04:23.482Z,52.42
2018-07-14T19:06:52.157Z,53.79
2018-07-14T19:09:20.862Z,54.29
2018-07-14T19:11:49.523Z,55.04
2018-07-14T19:14:18.158Z,55.41
2018-07-14T19:16:47.455Z,54.88
2018-07-14T19:19:16.145Z,54.62
2018-07-14T19:21:44.877Z,55.47
2018-07-14T19:24:13.571Z,54.74
2018-07-14T19:26:42.210Z,55.52
2018-07-14T19:29:10.846Z,55.67
2018-07-14T19:31:39.626Z,55.70
2018-07-14T19:34:08.417Z,55.65
2018-07-14T19:36:37.153Z,56.22
2018-07-14T19:39:07.062Z,55.62
2018-07-14T19:41:35.761Z,56.24
2018-07-14T19:44:04.630Z,57.36
2018-07-14T19:46:35.128Z,56.69
2018-07-14T19:49:04.316Z,56.74
2018-07-14T19:51:34.289Z,56.82
2018-07-14T19:54:02.945Z,56.93
2018-07-14T19:56:31.565Z,57.64
2018-07-14T19:59:00.186Z,57.18
2018-07-14T20:01:28.769Z,57.68
2018-07-14T20:03:57.383Z,57.80
2018-07-14T20:06:26.115Z,58.37
2018-07-14T20:08:54.794Z,58.46
2018-07-14T20:11:24.920Z,58.60
2018-07-14T20:13:53.563Z,58.80
2018-07-14T20:16:22.164Z,59.27
2018-07-14T20:18:50.800Z,59.40
2018-07-14T20:21:19.415Z,59.27
2018-07-14T20:23:47.992Z,59.93
2018-07-14T20:26:16.707Z,60.10
2018-07-14T20:28:45.409Z,59.89
2018-07-14T20:31:14.094Z,59.82
2018-07-14T20:33:42.815Z,59.86
2018-07-14T20:36:11.467Z,59.82
2018-07-14T20:38:40.089Z,60.07
2018-07-14T20:41:08.739Z,59.87
2018-07-14T20:43:37.439Z,59.95
2018-07-14T20:46:06.422Z,59.92
2018-07-14T20:48:35.245Z,60.59
2018-07-14T20:51:03.870Z,60.62
2018-07-14T20:53:32.472Z,60.66
2018-07-14T20:56:01.475Z,61.57
2018-07-14T20:58:30.097Z,61.18
2018-07-14T21:00:58.715Z,61.40
2018-07-14T21:03:27.349Z,61.70
2018-07-14T21:05:56.377Z,61.04
2018-07-14T21:08:25.086Z,61.14
2018-07-14T21:10:53.714Z,60.89
2018-07-14T21:13:22.361Z,61.13
2018-07-14T21:15:51.055Z,60.90
2018-07-14T21:18:19.672Z,60.63
2018-07-14T21:20:48.432Z,60.62
2018-07-14T21:23:16.978Z,60.64
2018-07-14T21:25:45.892Z,60.80
2018-07-14T21:28:14.589Z,60.43
2018-07-14T21:30:43.208Z,60.88
2018-07-14T21:33:12.121Z,60.84
2018-07-14T21:35:42.749Z,61.47
2018-07-14T21:38:14.521Z,61.24
2018-07-14T21:40:43.185Z,61.74
2018-07-14T21:43:11.825Z,62.12
2018-07-14T21:45:40.741Z,62.12
2018-07-14T21:48:09.422Z,61.97
2018-07-14T21:50:38.177Z,62.16
2018-07-14T21:53:07.158Z,61.73
2018-07-14T21:55:36.767Z,62.03
2018-07-14T21:58:05.519Z,59.96
2018-07-14T22:00:39.212Z,59.42
2018-07-14T22:03:08.760Z,58.37
2018-07-14T22:05:37.953Z,58.44
2018-07-14T22:08:06.626Z,57.62
2018-07-14T22:10:35.375Z,58.11
2018-07-14T22:13:04.069Z,58.24
2018-07-14T22:15:32.873Z,57.30
2018-07-14T22:18:01.516Z,57.15
2018-07-14T22:20:30.154Z,57.20
2018-07-14T22:22:58.782Z,57.64
2018-07-14T22:25:27.797Z,57.97
2018-07-14T22:27:56.447Z,58.54
2018-07-14T22:30:25.110Z,58.94
2018-07-14T22:32:53.786Z,58.73
2018-07-14T22:35:22.461Z,57.48
2018-07-14T22:37:51.065Z,57.83
2018-07-14T22:40:19.680Z,58.75
2018-07-14T22:42:48.861Z,58.76
2018-07-14T22:45:17.479Z,58.19
2018-07-14T22:47:46.078Z,58.34
2018-07-14T22:50:14.705Z,57.59
2018-07-14T22:52:43.340Z,56.91
2018-07-14T22:55:12.455Z,57.78
2018-07-14T22:57:41.162Z,57.16
2018-07-14T23:00:09.969Z,57.57
2018-07-14T23:02:38.597Z,57.69
2018-07-14T23:05:07.222Z,57.70
2018-07-14T23:07:35.869Z,58.03
2018-07-14T23:10:04.583Z,58.47
2018-07-14T23:12:33.170Z,58.87
2018-07-14T23:15:02.086Z,58.61
2018-07-14T23:17:30.741Z,59.05
2018-07-14T23:19:59.403Z,59.13
2018-07-14T23:22:28.018Z,59.40
2018-07-14T23:24:56.605Z,59.20
2018-07-14T23:27:25.452Z,59.13
2018-07-14T23:29:54.141Z,58.96
2018-07-14T23:32:22.826Z,59.29
2018-07-14T23:34:51.454Z,59.30
2018-07-14T23:37:20.117Z,59.10
2018-07-14T23:39:48.781Z,59.48
2018-07-14T23:42:17.437Z,59.48
2018-07-14T23:44:46.203Z,59.88
2018-07-14T23:47:14.839Z,60.32
2018-07-14T23:49:43.453Z,60.44
2018-07-14T23:52:12.085Z,60.52
2018-07-14T23:54:40.927Z,60.49
2018-07-14T23:57:10.737Z,60.69
2018-07-14T23:59:39.351Z,60.30
